Mason Township, Maine
Current Conditions -  °F | °C
As of 4:52 AM on Friday 19 Dec 2014 (Local Time) from KBML Reporting Station
Overcast Overcast  
Wind Chill: 19°   Ceiling: 2000
Heat Index: 27°   Visibility: 10mi
Dew Point: 20°   Wind: 7mph
Humidity: 75%   Direction: NA
Pressure: 29.82"   Gusts: NA
Location:  44.3718°N, 70.8421°W
Report Text: KBML 190952Z AUTO VRB06KT 10SM OVC020 M03/M07 A2982 RMK AO2 SLP116 T10281067 $
Loading
Personal Weather Stations






























Interactive Weather Map New forecast layout! Learn more

10-Day Weather Forecast

Advertisements
Track Severe Weather on mobile